Maysville, Missouri
Current Conditions -  °F | °C
As of 2:53 PM on Saturday 22 Nov 2014 (Local Time) from KSTJ Reporting Station
Haze Haze  
Wind Chill: 56°   Ceiling: 700
Heat Index: 56°   Visibility: 6mi
Dew Point: 55°   Wind: 13mph
Humidity: 97%   Direction: 180°S
Pressure: 29.78"   Gusts: NA
Location:  39.89°N, 94.36°W
Report Text: KSTJ 222053Z 18011KT 6SM BR OVC007 13/13 A2978 RMK AO2 SLP083 T01330128 56016
Loading
Personal Weather Stations






























Interactive Weather Map New forecast layout! Learn more

10-Day Weather Forecast

Advertisements
Track Severe Weather on mobile